sensor_id;sensor_type;location;lat;lon;timestamp;pressure;altitude;pressure_sealevel;temperature;humidity
34124;BME280;13153;52.316;21.166;2022-09-09T00:07:25;100202.50;;;16.11;64.05
34124;BME280;13153;52.316;21.166;2022-09-09T00:10:28;100199.81;;;16.19;63.92
34124;BME280;13153;52.316;21.166;2022-09-09T00:15:42;100198.94;;;16.23;63.54
34124;BME280;13153;52.316;21.166;2022-09-09T00:21:34;100210.47;;;16.27;63.83
34124;BME280;13153;52.316;21.166;2022-09-09T00:24:14;100186.56;;;16.19;64.07
34124;BME280;13153;52.316;21.166;2022-09-09T00:26:51;100184.78;;;16.18;64.28
34124;BME280;13153;52.316;21.166;2022-09-09T00:29:53;100175.94;;;16.27;64.57
34124;BME280;13153;52.316;21.166;2022-09-09T00:32:22;100168.84;;;16.24;64.50
34124;BME280;13153;52.316;21.166;2022-09-09T00:35:12;100191.88;;;16.31;64.27
34124;BME280;13153;52.316;21.166;2022-09-09T00:37:42;100172.41;;;16.20;64.60
34124;BME280;13153;52.316;21.166;2022-09-09T00:41:22;100169.75;;;16.26;64.61
34124;BME280;13153;52.316;21.166;2022-09-09T00:44:10;100174.16;;;16.38;64.23
34124;BME280;13153;52.316;21.166;2022-09-09T00:47:23;100166.19;;;16.18;64.74
34124;BME280;13153;52.316;21.166;2022-09-09T00:50:05;100167.09;;;16.23;64.52
34124;BME280;13153;52.316;21.166;2022-09-09T00:56:11;100155.59;;;16.23;64.87
34124;BME280;13153;52.316;21.166;2022-09-09T00:58:37;100174.19;;;16.16;64.92
34124;BME280;13153;52.316;21.166;2022-09-09T01:01:09;100159.16;;;16.02;65.77
34124;BME280;13153;52.316;21.166;2022-09-09T01:03:58;100150.28;;;15.95;65.66
34124;BME280;13153;52.316;21.166;2022-09-09T01:06:36;100156.50;;;16.11;66.26
34124;BME280;13153;52.316;21.166;2022-09-09T01:12:38;100158.25;;;16.04;65.79
34124;BME280;13153;52.316;21.166;2022-09-09T01:15:26;100152.06;;;16.01;65.68
34124;BME280;13153;52.316;21.166;2022-09-09T01:18:01;100164.47;;;16.09;65.57
34124;BME280;13153;52.316;21.166;2022-09-09T01:26:35;100162.66;;;16.28;65.42
34124;BME280;13153;52.316;21.166;2022-09-09T01:29:07;100171.50;;;16.26;65.61
34124;BME280;13153;52.316;21.166;2022-09-09T01:31:40;100162.66;;;16.28;65.47
34124;BME280;13153;52.316;21.166;2022-09-09T01:34:15;100162.69;;;16.13;65.79
34124;BME280;13153;52.316;21.166;2022-09-09T01:37:05;100162.66;;;16.21;65.87
34124;BME280;13153;52.316;21.166;2022-09-09T01:39:35;100161.81;;;16.15;66.06
34124;BME280;13153;52.316;21.166;2022-09-09T01:42:05;100158.25;;;16.19;65.80
34124;BME280;13153;52.316;21.166;2022-09-09T01:44:32;100148.50;;;16.26;65.65
34124;BME280;13153;52.316;21.166;2022-09-09T01:46:59;100154.69;;;16.34;65.83
34124;BME280;13153;52.316;21.166;2022-09-09T01:49:25;100154.69;;;16.36;65.66
34124;BME280;13153;52.316;21.166;2022-09-09T01:51:55;100149.38;;;16.28;65.86
34124;BME280;13153;52.316;21.166;2022-09-09T01:54:26;100137.00;;;16.23;65.84
34124;BME280;13153;52.316;21.166;2022-09-09T01:57:25;100138.78;;;16.30;65.90
34124;BME280;13153;52.316;21.166;2022-09-09T02:00:05;100150.28;;;16.27;65.80
34124;BME280;13153;52.316;21.166;2022-09-09T02:05:45;100148.50;;;16.29;65.82
34124;BME280;13153;52.316;21.166;2022-09-09T02:08:24;100137.00;;;16.19;65.82
34124;BME280;13153;52.316;21.166;2022-09-09T02:13:32;100152.06;;;16.13;66.40
34124;BME280;13153;52.316;21.166;2022-09-09T02:16:22;100138.81;;;16.11;66.48
34124;BME280;13153;52.316;21.166;2022-09-09T02:19:07;100149.38;;;16.19;66.48
34124;BME280;13153;52.316;21.166;2022-09-09T02:21:34;100144.97;;;16.30;66.41
34124;BME280;13153;52.316;21.166;2022-09-09T02:24:06;100151.16;;;16.25;66.28
34124;BME280;13153;52.316;21.166;2022-09-09T02:26:40;100148.50;;;16.23;66.09
34124;BME280;13153;52.316;21.166;2022-09-09T02:29:31;100135.22;;;16.34;66.07
34124;BME280;13153;52.316;21.166;2022-09-09T02:32:04;100137.00;;;16.42;65.94
34124;BME280;13153;52.316;21.166;2022-09-09T02:34:36;100140.53;;;16.32;65.97
34124;BME280;13153;52.316;21.166;2022-09-09T02:37:08;100139.66;;;16.33;65.86
34124;BME280;13153;52.316;21.166;2022-09-09T02:39:35;100136.13;;;16.27;66.32
34124;BME280;13153;52.316;21.166;2022-09-09T02:42:00;100146.72;;;16.37;66.15
34124;BME280;13153;52.316;21.166;2022-09-09T02:44:26;100142.31;;;16.44;66.27
34124;BME280;13153;52.316;21.166;2022-09-09T02:50:30;100141.44;;;16.31;66.41
34124;BME280;13153;52.316;21.166;2022-09-09T02:53:16;100144.97;;;16.33;66.34
34124;BME280;13153;52.316;21.166;2022-09-09T02:56:04;100140.53;;;16.41;66.28
34124;BME280;13153;52.316;21.166;2022-09-09T02:58:33;100146.72;;;16.46;65.95
34124;BME280;13153;52.316;21.166;2022-09-09T03:00:59;100144.06;;;16.45;66.09
34124;BME280;13153;52.316;21.166;2022-09-09T03:03:26;100151.16;;;16.41;66.23
34124;BME280;13153;52.316;21.166;2022-09-09T03:05:52;100152.94;;;16.33;66.68
34124;BME280;13153;52.316;21.166;2022-09-09T03:08:18;100147.63;;;16.38;66.37
34124;BME280;13153;52.316;21.166;2022-09-09T03:10:44;100151.16;;;16.38;66.61
34124;BME280;13153;52.316;21.166;2022-09-09T03:13:10;100152.03;;;16.37;66.61
34124;BME280;13153;52.316;21.166;2022-09-09T03:15:38;100144.06;;;16.40;66.44
34124;BME280;13153;52.316;21.166;2022-09-09T03:18:04;100157.34;;;16.49;66.30
34124;BME280;13153;52.316;21.166;2022-09-09T03:20:30;100145.84;;;16.43;66.16
34124;BME280;13153;52.316;21.166;2022-09-09T03:22:58;100146.72;;;16.45;65.92
34124;BME280;13153;52.316;21.166;2022-09-09T03:25:24;100144.94;;;16.50;66.07
34124;BME280;13153;52.316;21.166;2022-09-09T03:27:52;100145.84;;;16.55;65.70
34124;BME280;13153;52.316;21.166;2022-09-09T03:30:25;100151.13;;;16.60;65.85
34124;BME280;13153;52.316;21.166;2022-09-09T03:32:52;100149.38;;;16.57;65.64
34124;BME280;13153;52.316;21.166;2022-09-09T03:35:18;100144.06;;;16.52;65.63
34124;BME280;13153;52.316;21.166;2022-09-09T03:37:45;100129.00;;;16.61;65.75
34124;BME280;13153;52.316;21.166;2022-09-09T03:40:11;100130.78;;;16.56;65.75
34124;BME280;13153;52.316;21.166;2022-09-09T03:42:38;100125.47;;;16.52;66.51
34124;BME280;13153;52.316;21.166;2022-09-09T03:45:07;100131.66;;;16.56;65.92
34124;BME280;13153;52.316;21.166;2022-09-09T03:47:34;100126.34;;;16.55;66.03
34124;BME280;13153;52.316;21.166;2022-09-09T03:50:01;100132.56;;;16.50;66.07
34124;BME280;13153;52.316;21.166;2022-09-09T03:52:26;100123.72;;;16.39;66.52
34124;BME280;13153;52.316;21.166;2022-09-09T03:54:53;100121.06;;;16.35;66.74
34124;BME280;13153;52.316;21.166;2022-09-09T03:57:20;100123.72;;;16.33;66.76
34124;BME280;13153;52.316;21.166;2022-09-09T03:59:45;100130.81;;;16.37;66.95
34124;BME280;13153;52.316;21.166;2022-09-09T04:02:11;100137.00;;;16.36;67.01
34124;BME280;13153;52.316;21.166;2022-09-09T04:04:37;100132.56;;;16.38;66.85
34124;BME280;13153;52.316;21.166;2022-09-09T04:07:03;100141.41;;;16.46;67.01
34124;BME280;13153;52.316;21.166;2022-09-09T04:09:32;100144.06;;;16.45;67.16
34124;BME280;13153;52.316;21.166;2022-09-09T04:11:58;100144.06;;;16.45;66.85
34124;BME280;13153;52.316;21.166;2022-09-09T04:14:24;100145.84;;;16.46;66.62
34124;BME280;13153;52.316;21.166;2022-09-09T04:16:54;100149.38;;;16.56;66.83
34124;BME280;13153;52.316;21.166;2022-09-09T04:19:21;100152.91;;;16.55;66.66
34124;BME280;13153;52.316;21.166;2022-09-09T04:21:47;100152.03;;;16.62;66.77
34124;BME280;13153;52.316;21.166;2022-09-09T04:24:17;100141.41;;;16.66;66.69
34124;BME280;13153;52.316;21.166;2022-09-09T04:26:43;100144.06;;;16.68;66.18
34124;BME280;13153;52.316;21.166;2022-09-09T04:29:09;100149.38;;;16.69;66.37
34124;BME280;13153;52.316;21.166;2022-09-09T04:31:35;100142.31;;;16.68;66.24
34124;BME280;13153;52.316;21.166;2022-09-09T04:34:01;100144.06;;;16.69;66.35
34124;BME280;13153;52.316;21.166;2022-09-09T04:36:32;100141.41;;;16.71;66.47
34124;BME280;13153;52.316;21.166;2022-09-09T04:38:58;100146.72;;;16.74;66.46
34124;BME280;13153;52.316;21.166;2022-09-09T04:41:23;100138.75;;;16.72;66.61
34124;BME280;13153;52.316;21.166;2022-09-09T04:43:49;100139.63;;;16.74;66.53
34124;BME280;13153;52.316;21.166;2022-09-09T04:46:15;100136.94;;;16.77;66.50
34124;BME280;13153;52.316;21.166;2022-09-09T04:48:43;100139.63;;;16.74;66.59
34124;BME280;13153;52.316;21.166;2022-09-09T04:51:13;100147.56;;;16.76;66.66
34124;BME280;13153;52.316;21.166;2022-09-09T04:53:39;100148.44;;;16.78;66.42
34124;BME280;13153;52.316;21.166;2022-09-09T04:56:17;100153.75;;;16.78;66.26
34124;BME280;13153;52.316;21.166;2022-09-09T04:58:43;100144.94;;;16.73;66.42
34124;BME280;13153;52.316;21.166;2022-09-09T05:01:21;100147.59;;;16.71;66.60
34124;BME280;13153;52.316;21.166;2022-09-09T05:03:47;100152.91;;;16.74;66.94
34124;BME280;13153;52.316;21.166;2022-09-09T05:06:19;100157.34;;;16.74;66.68
34124;BME280;13153;52.316;21.166;2022-09-09T05:08:45;100160.84;;;16.76;66.46
34124;BME280;13153;52.316;21.166;2022-09-09T05:11:30;100159.06;;;16.84;66.98
34124;BME280;13153;52.316;21.166;2022-09-09T05:13:57;100152.84;;;16.90;66.74
34124;BME280;13153;52.316;21.166;2022-09-09T05:16:23;100158.16;;;16.88;66.45
34124;BME280;13153;52.316;21.166;2022-09-09T05:18:49;100161.72;;;16.90;66.35
34124;BME280;13153;52.316;21.166;2022-09-09T05:21:18;100157.28;;;16.94;66.41
34124;BME280;13153;52.316;21.166;2022-09-09T05:23:46;100158.16;;;16.94;65.76
34124;BME280;13153;52.316;21.166;2022-09-09T05:26:14;100164.34;;;16.93;66.21
34124;BME280;13153;52.316;21.166;2022-09-09T05:28:40;100167.91;;;16.95;65.94
34124;BME280;13153;52.316;21.166;2022-09-09T05:31:10;100163.47;;;16.96;66.12
34124;BME280;13153;52.316;21.166;2022-09-09T05:33:39;100165.22;;;16.97;66.21
34124;BME280;13153;52.316;21.166;2022-09-09T05:36:17;100161.69;;;16.99;65.84
34124;BME280;13153;52.316;21.166;2022-09-09T05:38:44;100164.34;;;16.99;65.70
34124;BME280;13153;52.316;21.166;2022-09-09T05:41:12;100169.66;;;16.93;65.85
34124;BME280;13153;52.316;21.166;2022-09-09T05:43:38;100178.53;;;16.92;66.06
34124;BME280;13153;52.316;21.166;2022-09-09T05:46:39;100174.13;;;16.90;66.01
34124;BME280;13153;52.316;21.166;2022-09-09T05:48:58;100180.31;;;16.87;65.84
34124;BME280;13153;52.316;21.166;2022-09-09T05:51:26;100175.94;;;16.60;66.94
34124;BME280;13153;52.316;21.166;2022-09-09T05:53:55;100175.94;;;16.69;67.02
34124;BME280;13153;52.316;21.166;2022-09-09T05:56:26;100175.06;;;16.69;66.92
34124;BME280;13153;52.316;21.166;2022-09-09T05:58:54;100175.94;;;16.69;67.06
34124;BME280;13153;52.316;21.166;2022-09-09T06:01:32;100174.13;;;16.76;67.50
34124;BME280;13153;52.316;21.166;2022-09-09T06:03:58;100175.91;;;16.83;67.53
34124;BME280;13153;52.316;21.166;2022-09-09T06:06:27;100170.56;;;16.89;67.36
34124;BME280;13153;52.316;21.166;2022-09-09T06:08:57;100172.31;;;16.93;66.98
34124;BME280;13153;52.316;21.166;2022-09-09T06:11:29;100175.91;;;16.84;66.97
34124;BME280;13153;52.316;21.166;2022-09-09T06:13:57;100182.09;;;16.85;66.86
34124;BME280;13153;52.316;21.166;2022-09-09T06:16:25;100182.09;;;16.90;67.03
34124;BME280;13153;52.316;21.166;2022-09-09T06:18:53;100189.19;;;16.83;67.14
34124;BME280;13153;52.316;21.166;2022-09-09T06:21:26;100185.63;;;16.81;67.47
34124;BME280;13153;52.316;21.166;2022-09-09T06:23:52;100190.97;;;16.82;67.12
34124;BME280;13153;52.316;21.166;2022-09-09T06:26:24;100191.00;;;16.73;67.35
34124;BME280;13153;52.316;21.166;2022-09-09T06:28:53;100193.63;;;16.82;67.77
34124;BME280;13153;52.316;21.166;2022-09-09T06:31:27;100192.72;;;16.85;67.49
34124;BME280;13153;52.316;21.166;2022-09-09T06:33:58;100203.34;;;16.90;67.49
34124;BME280;13153;52.316;21.166;2022-09-09T06:36:30;100197.16;;;16.88;67.33
34124;BME280;13153;52.316;21.166;2022-09-09T06:38:57;100193.59;;;16.93;67.37
34124;BME280;13153;52.316;21.166;2022-09-09T06:41:26;100197.13;;;16.92;67.08
34124;BME280;13153;52.316;21.166;2022-09-09T06:43:52;100206.00;;;16.90;67.13
34124;BME280;13153;52.316;21.166;2022-09-09T06:46:21;100198.91;;;16.89;67.40
34124;BME280;13153;52.316;21.166;2022-09-09T06:48:48;100204.25;;;16.86;67.65
34124;BME280;13153;52.316;21.166;2022-09-09T06:51:21;100200.69;;;16.87;67.76
34124;BME280;13153;52.316;21.166;2022-09-09T06:53:51;100206.00;;;16.83;67.79
34124;BME280;13153;52.316;21.166;2022-09-09T06:56:23;100206.03;;;16.77;67.95
34124;BME280;13153;52.316;21.166;2022-09-09T06:58:54;100208.66;;;16.87;67.95
34124;BME280;13153;52.316;21.166;2022-09-09T07:01:23;100205.13;;;16.92;68.12
34124;BME280;13153;52.316;21.166;2022-09-09T07:03:52;100209.53;;;16.93;67.93
34124;BME280;13153;52.316;21.166;2022-09-09T07:06:43;100209.53;;;16.95;67.93
34124;BME280;13153;52.316;21.166;2022-09-09T07:09:14;100214.84;;;16.95;67.60
34124;BME280;13153;52.316;21.166;2022-09-09T07:11:49;100216.63;;;16.85;68.18
34124;BME280;13153;52.316;21.166;2022-09-09T07:14:16;100211.31;;;16.88;68.00
34124;BME280;13153;52.316;21.166;2022-09-09T07:16:44;100214.88;;;16.87;68.04
34124;BME280;13153;52.316;21.166;2022-09-09T07:19:11;100214.84;;;16.95;68.08
34124;BME280;13153;52.316;21.166;2022-09-09T07:21:38;100205.97;;;17.00;67.95
34124;BME280;13153;52.316;21.166;2022-09-09T07:24:06;100215.72;;;17.04;68.13
34124;BME280;13153;52.316;21.166;2022-09-09T07:26:38;100213.94;;;17.06;67.92
34124;BME280;13153;52.316;21.166;2022-09-09T07:29:04;100240.53;;;17.08;67.66
34124;BME280;13153;52.316;21.166;2022-09-09T07:31:34;100233.44;;;17.02;67.76
34124;BME280;13153;52.316;21.166;2022-09-09T07:34:01;100228.13;;;17.04;67.82
34124;BME280;13153;52.316;21.166;2022-09-09T07:36:38;100232.56;;;17.03;67.68
34124;BME280;13153;52.316;21.166;2022-09-09T07:39:10;100238.75;;;17.05;67.74
34124;BME280;13153;52.316;21.166;2022-09-09T07:41:47;100241.41;;;17.13;68.09
34124;BME280;13153;52.316;21.166;2022-09-09T07:44:20;100242.28;;;17.20;67.72
34124;BME280;13153;52.316;21.166;2022-09-09T07:46:50;100241.41;;;17.05;68.02
34124;BME280;13153;52.316;21.166;2022-09-09T07:49:16;100236.97;;;17.12;68.17
34124;BME280;13153;52.316;21.166;2022-09-09T07:51:46;100238.72;;;17.17;67.77
34124;BME280;13153;52.316;21.166;2022-09-09T07:54:15;100240.50;;;17.19;67.89
34124;BME280;13153;52.316;21.166;2022-09-09T07:56:42;100240.50;;;17.20;67.63
34124;BME280;13153;52.316;21.166;2022-09-09T07:59:09;100251.13;;;17.19;68.15
34124;BME280;13153;52.316;21.166;2022-09-09T08:01:42;100244.94;;;17.23;67.91
34124;BME280;13153;52.316;21.166;2022-09-09T08:04:18;100253.78;;;17.26;67.67
34124;BME280;13153;52.316;21.166;2022-09-09T08:06:51;100246.69;;;17.28;67.75
34124;BME280;13153;52.316;21.166;2022-09-09T08:09:19;100246.63;;;17.37;67.93
34124;BME280;13153;52.316;21.166;2022-09-09T08:11:46;100259.00;;;17.44;67.74
34124;BME280;13153;52.316;21.166;2022-09-09T08:14:12;100267.00;;;17.43;67.54
34124;BME280;13153;52.316;21.166;2022-09-09T08:16:43;100260.78;;;17.44;67.38
34124;BME280;13153;52.316;21.166;2022-09-09T08:19:09;100266.09;;;17.47;67.46
34124;BME280;13153;52.316;21.166;2022-09-09T08:21:38;100252.78;;;17.48;67.45
34124;BME280;13153;52.316;21.166;2022-09-09T08:24:06;100263.41;;;17.55;67.82
34124;BME280;13153;52.316;21.166;2022-09-09T08:26:40;100262.50;;;17.65;67.59
34124;BME280;13153;52.316;21.166;2022-09-09T08:29:09;100268.72;;;17.59;67.24
34124;BME280;13153;52.316;21.166;2022-09-09T08:34:08;100264.34;;;17.43;67.29
34124;BME280;13153;52.316;21.166;2022-09-09T08:36:39;100265.22;;;17.43;67.67
34124;BME280;13153;52.316;21.166;2022-09-09T08:39:07;100274.97;;;17.47;67.69
34124;BME280;13153;52.316;21.166;2022-09-09T08:44:39;100277.63;;;17.50;67.64
34124;BME280;13153;52.316;21.166;2022-09-09T08:50:22;100283.81;;;17.51;67.48
34124;BME280;13153;52.316;21.166;2022-09-09T08:55:59;100295.34;;;17.55;67.40
34124;BME280;13153;52.316;21.166;2022-09-09T08:58:29;100304.22;;;17.49;67.60
34124;BME280;13153;52.316;21.166;2022-09-09T09:07:24;100298.94;;;17.34;67.96
34124;BME280;13153;52.316;21.166;2022-09-09T09:12:53;100295.31;;;17.58;67.30
34124;BME280;13153;52.316;21.166;2022-09-09T09:17:47;100291.75;;;17.72;67.46
34124;BME280;13153;52.316;21.166;2022-09-09T09:20:16;100286.44;;;17.72;67.37
34124;BME280;13153;52.316;21.166;2022-09-09T09:22:51;100287.31;;;17.79;67.37
34124;BME280;13153;52.316;21.166;2022-09-09T09:25:27;100301.41;;;17.92;66.59
34124;BME280;13153;52.316;21.166;2022-09-09T09:28:18;100310.34;;;17.89;66.42
34124;BME280;13153;52.316;21.166;2022-09-09T09:31:06;100304.16;;;17.83;66.70
34124;BME280;13153;52.316;21.166;2022-09-09T09:36:08;100311.22;;;17.85;66.92
34124;BME280;13153;52.316;21.166;2022-09-09T09:38:36;100314.78;;;17.86;66.63
34124;BME280;13153;52.316;21.166;2022-09-09T09:41:02;100307.66;;;17.91;66.74
34124;BME280;13153;52.316;21.166;2022-09-09T09:43:37;100314.72;;;17.93;66.86
34124;BME280;13153;52.316;21.166;2022-09-09T09:46:21;100311.16;;;17.93;66.88
34124;BME280;13153;52.316;21.166;2022-09-09T09:49:05;100308.56;;;17.84;66.87
34124;BME280;13153;52.316;21.166;2022-09-09T09:51:35;100305.03;;;17.80;67.02
34124;BME280;13153;52.316;21.166;2022-09-09T09:56:39;100316.56;;;17.80;67.24
34124;BME280;13153;52.316;21.166;2022-09-09T09:59:20;100316.56;;;17.84;67.55
34124;BME280;13153;52.316;21.166;2022-09-09T10:01:46;100319.22;;;17.87;67.36
34124;BME280;13153;52.316;21.166;2022-09-09T10:04:22;100315.66;;;17.89;67.25
34124;BME280;13153;52.316;21.166;2022-09-09T10:06:50;100317.38;;;17.93;67.35
34124;BME280;13153;52.316;21.166;2022-09-09T10:09:29;100318.25;;;17.98;67.20
34124;BME280;13153;52.316;21.166;2022-09-09T10:18:35;100315.56;;;18.01;66.88
34124;BME280;13153;52.316;21.166;2022-09-09T10:21:46;100316.47;;;18.00;67.24
34124;BME280;13153;52.316;21.166;2022-09-09T10:25:01;100316.50;;;17.94;66.98
34124;BME280;13153;52.316;21.166;2022-09-09T10:31:01;100322.66;;;18.01;67.08
34124;BME280;13153;52.316;21.166;2022-09-09T10:36:45;100330.66;;;18.04;66.70
34124;BME280;13153;52.316;21.166;2022-09-09T10:39:38;100340.38;;;18.12;66.48
34124;BME280;13153;52.316;21.166;2022-09-09T10:42:15;100343.94;;;18.08;66.68
34124;BME280;13153;52.316;21.166;2022-09-09T10:47:43;100357.22;;;18.14;66.90
34124;BME280;13153;52.316;21.166;2022-09-09T10:50:44;100350.97;;;18.20;66.75
34124;BME280;13153;52.316;21.166;2022-09-09T10:53:36;100366.06;;;18.24;66.74
34124;BME280;13153;52.316;21.166;2022-09-09T10:56:23;100370.50;;;18.21;66.52
34124;BME280;13153;52.316;21.166;2022-09-09T10:58:58;100374.06;;;18.23;66.13
34124;BME280;13153;52.316;21.166;2022-09-09T11:01:34;100381.16;;;18.21;66.39
34124;BME280;13153;52.316;21.166;2022-09-09T11:04:16;100379.41;;;18.17;66.32
34124;BME280;13153;52.316;21.166;2022-09-09T11:06:51;100384.72;;;18.18;66.81
34124;BME280;13153;52.316;21.166;2022-09-09T11:09:23;100387.41;;;18.15;66.93
34124;BME280;13153;52.316;21.166;2022-09-09T11:11:54;100392.72;;;18.15;66.78
34124;BME280;13153;52.316;21.166;2022-09-09T11:16:53;100393.66;;;18.06;67.10
34124;BME280;13153;52.316;21.166;2022-09-09T11:19:38;100397.19;;;18.05;67.23
34124;BME280;13153;52.316;21.166;2022-09-09T11:22:22;100401.63;;;18.11;67.62
34124;BME280;13153;52.316;21.166;2022-09-09T11:25:15;100398.06;;;18.13;67.43
34124;BME280;13153;52.316;21.166;2022-09-09T11:31:44;100395.41;;;18.15;67.35
34124;BME280;13153;52.316;21.166;2022-09-09T11:37:29;100402.47;;;18.18;67.06
34124;BME280;13153;52.316;21.166;2022-09-09T11:40:18;100394.50;;;18.19;67.53
34124;BME280;13153;52.316;21.166;2022-09-09T11:42:46;100402.47;;;18.22;67.27
34124;BME280;13153;52.316;21.166;2022-09-09T11:45:26;100403.34;;;18.27;67.15
34124;BME280;13153;52.316;21.166;2022-09-09T11:47:57;100397.97;;;18.35;67.00
34124;BME280;13153;52.316;21.166;2022-09-09T11:52:49;100397.94;;;18.44;66.88
34124;BME280;13153;52.316;21.166;2022-09-09T11:55:33;100395.25;;;18.45;66.81
34124;BME280;13153;52.316;21.166;2022-09-09T11:58:06;100395.25;;;18.45;66.63
34124;BME280;13153;52.316;21.166;2022-09-09T12:00:48;100395.28;;;18.39;66.68
34124;BME280;13153;52.316;21.166;2022-09-09T12:03:46;100380.22;;;18.32;66.98
34124;BME280;13153;52.316;21.166;2022-09-09T12:06:25;100385.53;;;18.35;66.94
34124;BME280;13153;52.316;21.166;2022-09-09T12:09:05;100391.75;;;18.33;67.18
34124;BME280;13153;52.316;21.166;2022-09-09T12:11:31;100387.34;;;18.27;66.94
34124;BME280;13153;52.316;21.166;2022-09-09T12:14:01;100402.44;;;18.28;67.03
34124;BME280;13153;52.316;21.166;2022-09-09T12:16:38;100395.38;;;18.20;67.21
34124;BME280;13153;52.316;21.166;2022-09-09T12:19:22;100402.47;;;18.22;67.44
34124;BME280;13153;52.316;21.166;2022-09-09T12:24:46;100400.69;;;18.21;67.42
34124;BME280;13153;52.316;21.166;2022-09-09T12:27:34;100395.38;;;18.21;67.28
34124;BME280;13153;52.316;21.166;2022-09-09T12:30:12;100398.03;;;18.23;67.62
34124;BME280;13153;52.316;21.166;2022-09-09T12:32:40;100406.00;;;18.23;67.24
34124;BME280;13153;52.316;21.166;2022-09-09T12:35:23;100418.47;;;18.13;67.43
34124;BME280;13153;52.316;21.166;2022-09-09T12:38:01;100414.03;;;18.15;67.74
34124;BME280;13153;52.316;21.166;2022-09-09T12:40:32;100418.47;;;18.13;67.84
34124;BME280;13153;52.316;21.166;2022-09-09T12:43:21;100406.91;;;18.22;67.63
34124;BME280;13153;52.316;21.166;2022-09-09T12:45:51;100413.97;;;18.29;67.58
34124;BME280;13153;52.316;21.166;2022-09-09T12:48:35;100411.31;;;18.29;67.52
34124;BME280;13153;52.316;21.166;2022-09-09T12:51:03;100406.00;;;18.29;67.39
34124;BME280;13153;52.316;21.166;2022-09-09T12:53:37;100406.91;;;18.23;67.46
34124;BME280;13153;52.316;21.166;2022-09-09T12:56:08;100401.53;;;18.31;67.62
34124;BME280;13153;52.316;21.166;2022-09-09T12:58:47;100400.63;;;18.38;67.22
34124;BME280;13153;52.316;21.166;2022-09-09T13:01:26;100394.38;;;18.45;67.35
34124;BME280;13153;52.316;21.166;2022-09-09T13:03:52;100379.19;;;18.53;66.95
34124;BME280;13153;52.316;21.166;2022-09-09T13:06:28;100380.94;;;18.59;66.91
34124;BME280;13153;52.316;21.166;2022-09-09T13:08:58;100385.41;;;18.55;66.72
34124;BME280;13153;52.316;21.166;2022-09-09T13:11:41;100380.94;;;18.59;66.61
34124;BME280;13153;52.316;21.166;2022-09-09T13:14:28;100388.03;;;18.66;66.55
34124;BME280;13153;52.316;21.166;2022-09-09T13:17:01;100395.13;;;18.70;66.55
34124;BME280;13153;52.316;21.166;2022-09-09T13:19:38;100392.50;;;18.62;66.16
34124;BME280;13153;52.316;21.166;2022-09-09T13:22:40;100388.94;;;18.63;66.50
34124;BME280;13153;52.316;21.166;2022-09-09T13:25:26;100394.25;;;18.68;66.47
34124;BME280;13153;52.316;21.166;2022-09-09T13:28:03;100392.47;;;18.68;66.33
34124;BME280;13153;52.316;21.166;2022-09-09T13:30:33;100381.84;;;18.62;66.47
34124;BME280;13153;52.316;21.166;2022-09-09T13:36:08;100392.50;;;18.64;66.52
34124;BME280;13153;52.316;21.166;2022-09-09T13:38:55;100381.84;;;18.64;66.50
34124;BME280;13153;52.316;21.166;2022-09-09T13:41:42;100385.38;;;18.64;66.30
34124;BME280;13153;52.316;21.166;2022-09-09T13:44:29;100387.16;;;18.64;66.38
34124;BME280;13153;52.316;21.166;2022-09-09T13:47:21;100394.28;;;18.56;66.44
34124;BME280;13153;52.316;21.166;2022-09-09T13:49:49;100370.38;;;18.48;66.73
34124;BME280;13153;52.316;21.166;2022-09-09T13:52:18;100370.38;;;18.48;66.44
34124;BME280;13153;52.316;21.166;2022-09-09T13:54:49;100385.38;;;18.57;66.65
34124;BME280;13153;52.316;21.166;2022-09-09T13:57:22;100380.94;;;18.59;66.53
34124;BME280;13153;52.316;21.166;2022-09-09T13:59:49;100390.75;;;18.51;66.65
34124;BME280;13153;52.316;21.166;2022-09-09T14:02:16;100392.50;;;18.56;66.50
34124;BME280;13153;52.316;21.166;2022-09-09T14:04:42;100390.75;;;18.52;66.49
34124;BME280;13153;52.316;21.166;2022-09-09T14:07:14;100389.81;;;18.58;66.34
34124;BME280;13153;52.316;21.166;2022-09-09T14:09:41;100396.06;;;18.54;66.85
34124;BME280;13153;52.316;21.166;2022-09-09T14:12:13;100403.25;;;18.47;66.96
34124;BME280;13153;52.316;21.166;2022-09-09T14:14:41;100408.59;;;18.45;66.88
34124;BME280;13153;52.316;21.166;2022-09-09T14:17:08;100400.59;;;18.45;67.25
34124;BME280;13153;52.316;21.166;2022-09-09T14:19:34;100406.78;;;18.47;67.26
34124;BME280;13153;52.316;21.166;2022-09-09T14:22:00;100414.75;;;18.51;67.18
34124;BME280;13153;52.316;21.166;2022-09-09T14:24:29;100418.28;;;18.49;67.23
34124;BME280;13153;52.316;21.166;2022-09-09T14:26:55;100421.84;;;18.52;67.37
34124;BME280;13153;52.316;21.166;2022-09-09T14:29:21;100422.78;;;18.47;67.30
34124;BME280;13153;52.316;21.166;2022-09-09T14:31:47;100408.59;;;18.42;67.50
34124;BME280;13153;52.316;21.166;2022-09-09T14:34:13;100414.81;;;18.43;67.61
34124;BME280;13153;52.316;21.166;2022-09-09T14:36:40;100407.72;;;18.37;67.52
34124;BME280;13153;52.316;21.166;2022-09-09T14:39:07;100419.25;;;18.39;67.61
34124;BME280;13153;52.316;21.166;2022-09-09T14:41:33;100421.94;;;18.38;67.57
34124;BME280;13153;52.316;21.166;2022-09-09T14:43:59;100421.06;;;18.34;67.70
34124;BME280;13153;52.316;21.166;2022-09-09T14:46:26;100419.28;;;18.36;67.61
34124;BME280;13153;52.316;21.166;2022-09-09T14:48:52;100413.06;;;18.36;67.45